Time;durP1;ratioP1;P1;durP2;ratioP2;P2;SDS_P1;SDS_P2;PMS_P1;PMS_P2;Temp;Humidity;BMP_temperature;BMP_pressure;BME280_temperature;BME280_humidity;BME280_pressure;Samples;Min_cycle;Max_cycle;Signal;HPM_P1;HPM_P2
2021/05/03 00:00:10;;;;;;;9.57;4.30;;;3.50;99.90;;;;;;5078432;28;20205;-68
2021/05/03 00:02:37;;;;;;;7.47;3.63;;;3.50;99.90;;;;;;5076255;28;20202;-69
2021/05/03 00:05:06;;;;;;;5.77;3.97;;;3.50;99.90;;;;;;5080086;28;20202;-68
2021/05/03 00:07:32;;;;;;;7.20;4.37;;;3.50;99.90;;;;;;5076974;28;20209;-68
2021/05/03 00:09:59;;;;;;;7.13;3.70;;;3.70;99.90;;;;;;5074534;28;20604;-68
2021/05/03 00:12:26;;;;;;;5.97;3.97;;;3.70;99.90;;;;;;5079814;28;20202;-68
2021/05/03 00:14:52;;;;;;;7.53;3.90;;;3.60;99.90;;;;;;5080202;28;20690;-68
2021/05/03 00:17:19;;;;;;;6.30;3.70;;;3.60;99.90;;;;;;5076903;28;20206;-68
2021/05/03 00:19:45;;;;;;;6.43;3.73;;;3.60;99.90;;;;;;5079991;28;20723;-68
2021/05/03 00:22:12;;;;;;;8.80;3.97;;;3.70;99.90;;;;;;5075083;28;20203;-68
2021/05/03 00:24:38;;;;;;;6.93;4.07;;;3.80;99.90;;;;;;5077809;28;20609;-68
2021/05/03 00:27:05;;;;;;;6.67;3.60;;;3.90;99.90;;;;;;5073531;28;20210;-68
2021/05/03 00:29:32;;;;;;;6.50;3.40;;;3.80;99.90;;;;;;5075595;28;20206;-68
2021/05/03 00:31:58;;;;;;;7.57;4.40;;;3.90;99.90;;;;;;5076458;28;20202;-68
2021/05/03 00:34:25;;;;;;;7.50;4.03;;;4.00;99.90;;;;;;5074839;28;20558;-69
2021/05/03 00:36:52;;;;;;;5.97;3.50;;;4.10;99.90;;;;;;5077651;28;20239;-68
2021/05/03 00:39:18;;;;;;;5.07;3.77;;;4.30;99.90;;;;;;5088915;28;20264;-68
2021/05/03 00:41:44;;;;;;;5.87;3.40;;;4.20;99.90;;;;;;5084386;28;20201;-68
2021/05/03 00:44:11;;;;;;;5.73;3.20;;;4.30;99.90;;;;;;5078589;28;20687;-68
2021/05/03 00:46:39;;;;;;;6.03;3.27;;;4.40;99.90;;;;;;5080422;28;20635;-68
2021/05/03 00:49:06;;;;;;;5.10;3.50;;;4.40;99.90;;;;;;5085644;28;20204;-68
2021/05/03 00:51:34;;;;;;;9.70;3.70;;;4.40;99.90;;;;;;5084571;28;20202;-68
2021/05/03 00:54:00;;;;;;;8.60;3.60;;;4.50;99.90;;;;;;5075564;28;20198;-68
2021/05/03 00:56:27;;;;;;;6.87;3.27;;;4.50;99.90;;;;;;5077142;28;20214;-68
2021/05/03 00:58:54;;;;;;;4.10;3.53;;;4.70;99.90;;;;;;5075031;28;20613;-68
2021/05/03 01:01:20;;;;;;;4.80;3.50;;;4.70;99.90;;;;;;5081755;28;20217;-68
2021/05/03 01:03:46;;;;;;;5.83;3.53;;;4.70;99.90;;;;;;5086717;28;20205;-68
2021/05/03 01:06:13;;;;;;;5.43;3.40;;;4.70;99.90;;;;;;5083318;28;20206;-68
2021/05/03 01:08:40;;;;;;;7.73;3.23;;;4.70;99.90;;;;;;5078150;28;20252;-68
2021/05/03 01:11:07;;;;;;;6.83;3.40;;;4.70;99.90;;;;;;5078180;28;20202;-68
2021/05/03 01:13:33;;;;;;;6.73;3.50;;;4.70;99.90;;;;;;5080322;28;20209;-69
2021/05/03 01:15:59;;;;;;;5.00;3.50;;;4.60;99.90;;;;;;5083322;28;20217;-68
2021/05/03 01:18:29;;;;;;;9.07;3.13;;;4.70;99.90;;;;;;5079327;28;20652;-68
2021/05/03 01:20:56;;;;;;;5.10;3.00;;;4.70;99.90;;;;;;5079593;28;20594;-69
2021/05/03 01:23:23;;;;;;;4.43;3.30;;;4.70;99.90;;;;;;5086207;28;20202;-68
2021/05/03 01:25:50;;;;;;;4.03;3.47;;;4.70;99.90;;;;;;5074901;28;20198;-69
2021/05/03 01:28:17;;;;;;;5.37;3.00;;;4.70;99.90;;;;;;5085265;28;20286;-68
2021/05/03 01:30:45;;;;;;;5.40;2.83;;;4.60;99.90;;;;;;5082283;28;20212;-68
2021/05/03 01:33:13;;;;;;;3.77;3.10;;;4.60;99.90;;;;;;5075981;28;20607;-68
2021/05/03 01:35:42;;;;;;;5.17;3.37;;;4.60;99.90;;;;;;5075000;28;20202;-68
2021/05/03 01:38:09;;;;;;;5.10;2.83;;;4.50;99.90;;;;;;5082950;28;20194;-68
2021/05/03 01:40:38;;;;;;;6.03;3.20;;;4.40;99.90;;;;;;5083028;28;20254;-68
2021/05/03 01:43:16;;;;;;;6.93;3.90;;;4.40;99.90;;;;;;5079867;28;20202;-68
2021/05/03 01:45:44;;;;;;;5.07;2.90;;;4.30;99.90;;;;;;5080235;28;20193;-68
2021/05/03 01:48:12;;;;;;;9.87;3.10;;;4.30;99.90;;;;;;5075227;28;20197;-68
2021/05/03 01:50:39;;;;;;;7.40;3.60;;;4.20;99.90;;;;;;5078706;28;20674;-68
2021/05/03 01:53:06;;;;;;;6.03;3.00;;;4.20;99.90;;;;;;5084276;28;20571;-68
2021/05/03 01:55:35;;;;;;;5.20;3.47;;;4.10;99.90;;;;;;5080330;28;20198;-68
2021/05/03 01:58:02;;;;;;;4.07;3.03;;;4.00;99.90;;;;;;5080624;28;20549;-68
2021/05/03 02:00:29;;;;;;;4.87;3.50;;;3.80;99.90;;;;;;5079205;28;20217;-68
2021/05/03 02:02:56;;;;;;;6.10;3.20;;;3.70;99.90;;;;;;5077768;28;20209;-68
2021/05/03 02:05:25;;;;;;;5.97;3.53;;;3.60;99.90;;;;;;5081988;28;20206;-68
2021/05/03 02:08:02;;;;;;;6.33;3.40;;;3.60;99.90;;;;;;5083549;28;20766;-68
2021/05/03 02:10:29;;;;;;;5.17;3.13;;;3.60;99.90;;;;;;5079697;28;20208;-68
2021/05/03 02:12:58;;;;;;;3.47;3.10;;;3.50;99.90;;;;;;5076313;28;20225;-68
2021/05/03 02:15:26;;;;;;;5.93;3.07;;;3.40;99.90;;;;;;5075020;28;20645;-68
2021/05/03 02:17:52;;;;;;;5.50;3.63;;;3.50;99.90;;;;;;5085960;28;20209;-68
2021/05/03 02:20:19;;;;;;;7.07;3.20;;;3.40;99.90;;;;;;5080931;28;20569;-68
2021/05/03 02:22:48;;;;;;;5.87;3.50;;;3.40;99.90;;;;;;5079284;28;20202;-68
2021/05/03 02:25:14;;;;;;;5.40;3.30;;;3.40;99.90;;;;;;5081907;28;20202;-68
2021/05/03 02:27:41;;;;;;;5.53;3.37;;;3.20;99.90;;;;;;5080613;28;20219;-68
2021/05/03 02:30:10;;;;;;;5.70;3.57;;;3.10;99.90;;;;;;5083031;28;20205;-68
2021/05/03 02:32:37;;;;;;;5.53;3.33;;;3.20;99.90;;;;;;5080728;28;20198;-68
2021/05/03 02:35:04;;;;;;;6.63;2.90;;;3.10;99.90;;;;;;5082456;28;20440;-73
2021/05/03 02:37:33;;;;;;;6.77;3.57;;;3.00;99.90;;;;;;5079875;28;20640;-69
2021/05/03 02:39:59;;;;;;;6.30;3.13;;;3.00;99.90;;;;;;5080928;28;20296;-68
2021/05/03 02:42:26;;;;;;;5.43;3.23;;;3.00;99.90;;;;;;5078032;28;20268;-68
2021/05/03 02:44:52;;;;;;;7.00;3.23;;;2.80;99.90;;;;;;5078443;28;20207;-68
2021/05/03 02:47:20;;;;;;;5.30;3.07;;;2.80;99.90;;;;;;5088726;28;20703;-68
2021/05/03 02:49:47;;;;;;;5.47;3.30;;;2.70;99.90;;;;;;5078833;28;20217;-68
2021/05/03 02:52:13;;;;;;;4.30;3.00;;;2.60;99.90;;;;;;5076626;28;20220;-68
2021/05/03 02:54:39;;;;;;;5.90;3.30;;;2.40;99.90;;;;;;5080115;28;20206;-68
2021/05/03 02:57:06;;;;;;;5.80;3.57;;;2.40;99.90;;;;;;5082520;28;20627;-69
2021/05/03 02:59:32;;;;;;;7.00;3.80;;;2.40;99.90;;;;;;5086009;28;20226;-68
2021/05/03 03:02:00;;;;;;;6.70;4.10;;;2.30;99.90;;;;;;5085174;28;20729;-68
2021/05/03 03:04:27;;;;;;;7.60;4.23;;;2.50;99.90;;;;;;5081107;28;20202;-68
2021/05/03 03:06:53;;;;;;;5.27;3.70;;;2.60;99.90;;;;;;5077117;28;20207;-68
2021/05/03 03:09:20;;;;;;;7.80;4.03;;;2.50;99.90;;;;;;5081765;28;20194;-68
2021/05/03 03:11:47;;;;;;;6.57;4.17;;;2.50;99.90;;;;;;5077506;28;20205;-68
2021/05/03 03:14:14;;;;;;;6.37;4.17;;;2.60;99.90;;;;;;5080948;28;20682;-68
2021/05/03 03:16:41;;;;;;;6.73;3.93;;;2.60;99.90;;;;;;5090745;28;20206;-68
2021/05/03 03:19:08;;;;;;;9.90;4.33;;;2.50;99.90;;;;;;5077756;28;21200;-68
2021/05/03 03:21:35;;;;;;;6.73;4.33;;;2.60;99.90;;;;;;5078174;28;20611;-68
2021/05/03 03:24:01;;;;;;;6.30;4.30;;;2.50;99.90;;;;;;5077031;28;20232;-68
2021/05/03 03:26:27;;;;;;;7.60;4.67;;;2.40;99.90;;;;;;5078431;28;20198;-68
2021/05/03 03:28:54;;;;;;;9.73;4.40;;;2.40;99.90;;;;;;5075653;28;20198;-68
2021/05/03 03:31:20;;;;;;;8.13;5.47;;;2.20;99.90;;;;;;5079962;28;20197;-68
2021/05/03 03:33:46;;;;;;;8.60;4.67;;;2.40;99.90;;;;;;5075269;28;20667;-68
2021/05/03 03:36:13;;;;;;;9.27;4.17;;;2.30;99.90;;;;;;5084581;28;20198;-68
2021/05/03 03:38:40;;;;;;;7.10;4.53;;;2.30;99.90;;;;;;5084005;28;20225;-68
2021/05/03 03:41:07;;;;;;;8.60;4.10;;;2.30;99.90;;;;;;5079704;28;20199;-68
2021/05/03 03:43:34;;;;;;;6.97;3.87;;;2.50;99.90;;;;;;5083973;28;20456;-67
2021/05/03 03:46:01;;;;;;;8.33;4.43;;;2.40;99.90;;;;;;5079380;28;20567;-67
2021/05/03 03:48:27;;;;;;;8.07;4.67;;;2.50;99.90;;;;;;5078719;28;20204;-67
2021/05/03 03:50:53;;;;;;;7.17;4.17;;;2.50;99.90;;;;;;5078280;28;20198;-68
2021/05/03 03:53:20;;;;;;;14.63;5.10;;;2.40;99.90;;;;;;5078492;28;20329;-68
2021/05/03 03:55:47;;;;;;;9.40;5.00;;;2.50;99.90;;;;;;5076359;28;20709;-68
2021/05/03 03:58:14;;;;;;;8.73;4.43;;;2.40;99.90;;;;;;5074827;28;20225;-68
2021/05/03 04:00:40;;;;;;;7.97;4.67;;;2.60;99.90;;;;;;5076903;28;20656;-68
2021/05/03 04:03:09;;;;;;;7.13;4.20;;;2.80;99.90;;;;;;5083094;28;20656;-68
2021/05/03 04:05:50;;;;;;;7.63;4.40;;;3.20;99.90;;;;;;5079170;28;20260;-67
2021/05/03 04:08:21;;;;;;;9.30;5.10;;;3.60;99.90;;;;;;5076376;28;20198;-68
2021/05/03 04:10:57;;;;;;;10.13;5.20;;;4.00;99.90;;;;;;5080291;28;20201;-68
2021/05/03 04:21:54;;;;;;;6.80;4.20;;;4.20;99.90;;;;;;5078440;28;20576;-68
2021/05/03 04:24:23;;;;;;;6.50;4.50;;;4.30;99.90;;;;;;5084213;28;20247;-68
2021/05/03 04:26:50;;;;;;;6.13;4.07;;;4.40;99.90;;;;;;5082692;28;20213;-68
2021/05/03 04:29:17;;;;;;;6.30;4.00;;;4.00;99.90;;;;;;5083979;28;20555;-68
2021/05/03 04:31:43;;;;;;;10.50;5.33;;;4.10;99.90;;;;;;5086073;28;20259;-68
2021/05/03 04:34:09;;;;;;;10.67;6.30;;;4.20;99.90;;;;;;5081968;28;20202;-68
2021/05/03 04:36:36;;;;;;;7.40;4.60;;;4.30;99.90;;;;;;5077490;28;20218;-68
2021/05/03 04:39:03;;;;;;;5.77;3.70;;;4.90;99.90;;;;;;5077271;28;20679;-68
2021/05/03 04:41:30;;;;;;;9.97;4.10;;;5.50;99.90;;;;;;5079854;28;20212;-68
2021/05/03 04:43:57;;;;;;;6.93;4.27;;;5.60;99.90;;;;;;5078391;28;20206;-68
2021/05/03 04:46:24;;;;;;;6.23;3.90;;;5.30;99.90;;;;;;5084323;28;20569;-69
2021/05/03 04:48:50;;;;;;;6.53;3.73;;;5.60;99.90;;;;;;5075374;28;20195;-68
2021/05/03 04:51:17;;;;;;;6.67;4.07;;;5.50;99.90;;;;;;5083446;28;20209;-68
2021/05/03 04:53:43;;;;;;;6.03;4.47;;;5.90;99.90;;;;;;5074467;28;20231;-68
2021/05/03 04:56:09;;;;;;;7.80;4.40;;;6.60;99.90;;;;;;5077887;28;20206;-71
2021/05/03 04:58:36;;;;;;;8.80;4.40;;;6.40;99.90;;;;;;5072198;28;20751;-71
2021/05/03 05:01:03;;;;;;;7.33;4.07;;;6.40;99.90;;;;;;5076551;28;20206;-79
2021/05/03 05:03:29;;;;;;;7.83;4.33;;;6.80;99.90;;;;;;5089573;28;20202;-78
2021/05/03 05:05:56;;;;;;;8.13;4.10;;;7.50;99.90;;;;;;5078978;28;20209;-79
2021/05/03 05:08:23;;;;;;;9.47;4.37;;;8.40;99.90;;;;;;5080949;28;20285;-79
2021/05/03 05:10:50;;;;;;;5.43;4.07;;;8.20;99.90;;;;;;5083285;28;20710;-79
2021/05/03 05:13:16;;;;;;;5.67;4.27;;;7.50;99.90;;;;;;5073877;28;20214;-79
2021/05/03 05:15:42;;;;;;;8.00;4.47;;;8.40;99.90;;;;;;5078274;28;20226;-79
2021/05/03 05:18:11;;;;;;;6.57;4.57;;;9.20;99.90;;;;;;5074730;28;20194;-79
2021/05/03 05:20:38;;;;;;;7.73;4.57;;;8.20;99.90;;;;;;5075114;28;20298;-79
2021/05/03 05:23:05;;;;;;;8.50;4.60;;;8.10;99.90;;;;;;5076714;28;20212;-79
2021/05/03 05:25:31;;;;;;;8.27;4.23;;;8.50;99.90;;;;;;5084113;28;20208;-79
2021/05/03 05:27:58;;;;;;;8.77;4.67;;;8.10;99.90;;;;;;5074550;28;20205;-79
2021/05/03 05:30:25;;;;;;;7.67;4.50;;;8.00;99.90;;;;;;5080799;28;20254;-79
2021/05/03 05:32:51;;;;;;;6.43;4.30;;;8.50;99.90;;;;;;5089328;28;20201;-79
2021/05/03 05:35:18;;;;;;;10.27;5.10;;;8.50;99.90;;;;;;5072237;28;20251;-79
2021/05/03 05:37:45;;;;;;;9.27;5.00;;;8.00;99.90;;;;;;5078160;28;20617;-78
2021/05/03 05:40:11;;;;;;;8.83;4.53;;;7.70;99.90;;;;;;5090393;28;20217;-79
2021/05/03 05:42:38;;;;;;;8.00;4.57;;;7.90;99.90;;;;;;5080269;28;20762;-79
2021/05/03 05:45:06;;;;;;;5.47;4.40;;;8.40;99.90;;;;;;5087291;28;20202;-78
2021/05/03 05:47:33;;;;;;;12.63;4.57;;;8.40;99.90;;;;;;5084144;28;20206;-78
2021/05/03 05:49:59;;;;;;;6.93;4.43;;;7.70;99.90;;;;;;5088666;28;20213;-78
2021/05/03 05:52:26;;;;;;;6.93;4.87;;;7.40;99.90;;;;;;5090480;28;20205;-77
2021/05/03 05:54:54;;;;;;;6.97;4.73;;;7.90;99.90;;;;;;5081488;28;20293;-78
2021/05/03 05:57:21;;;;;;;7.27;4.40;;;7.50;99.90;;;;;;5081039;28;20640;-78
2021/05/03 05:59:47;;;;;;;6.30;4.47;;;7.70;99.90;;;;;;5077481;28;20226;-78
2021/05/03 06:02:14;;;;;;;7.70;4.73;;;9.10;99.90;;;;;;5090074;28;20204;-78
2021/05/03 06:04:40;;;;;;;7.63;4.77;;;8.10;99.90;;;;;;5077790;28;20202;-78
2021/05/03 06:07:07;;;;;;;9.63;5.90;;;8.30;99.90;;;;;;5081499;28;20559;-78
2021/05/03 06:09:34;;;;;;;8.70;4.87;;;8.30;99.90;;;;;;5079435;28;20224;-79
2021/05/03 06:12:00;;;;;;;10.37;5.37;;;8.90;99.90;;;;;;5079965;28;20202;-77
2021/05/03 06:14:27;;;;;;;10.67;5.00;;;8.10;99.90;;;;;;5076352;28;20296;-77
2021/05/03 06:16:53;;;;;;;7.70;4.93;;;7.70;99.90;;;;;;5082356;28;20205;-77
2021/05/03 06:19:19;;;;;;;7.20;4.63;;;7.40;99.90;;;;;;5083431;28;20228;-77
2021/05/03 06:21:46;;;;;;;7.87;5.37;;;7.40;99.90;;;;;;5084074;28;20727;-77
2021/05/03 06:24:12;;;;;;;13.77;8.07;;;7.50;99.90;;;;;;5090675;28;20600;-77
2021/05/03 06:26:40;;;;;;;8.00;5.03;;;7.30;99.90;;;;;;5083499;28;20285;-77
2021/05/03 06:29:06;;;;;;;8.07;4.57;;;7.40;99.90;;;;;;5076607;28;20574;-78
2021/05/03 06:31:32;;;;;;;7.63;4.20;;;7.50;99.90;;;;;;5077899;28;20202;-77
2021/05/03 06:33:59;;;;;;;6.47;4.07;;;7.70;99.90;;;;;;5076238;28;20460;-77
2021/05/03 06:36:25;;;;;;;8.03;4.67;;;7.70;99.90;;;;;;5078888;28;20195;-77
2021/05/03 06:38:51;;;;;;;6.17;4.03;;;7.70;99.90;;;;;;5083611;28;20541;-77
2021/05/03 06:41:18;;;;;;;8.53;4.63;;;7.80;99.90;;;;;;5086708;28;20209;-77
2021/05/03 06:43:45;;;;;;;6.87;4.23;;;7.70;99.90;;;;;;5081817;28;20198;-77
2021/05/03 06:46:11;;;;;;;9.73;4.67;;;7.70;99.90;;;;;;5079995;28;20198;-77
2021/05/03 06:48:38;;;;;;;9.77;5.10;;;7.70;99.90;;;;;;5089513;28;20208;-73
2021/05/03 06:51:04;;;;;;;9.37;4.80;;;7.60;99.90;;;;;;5078674;28;20257;-76
2021/05/03 06:53:31;;;;;;;8.27;4.50;;;7.70;99.90;;;;;;5079049;28;20205;-76
2021/05/03 06:55:57;;;;;;;9.97;5.00;;;7.80;99.90;;;;;;5077681;28;20564;-76
2021/05/03 06:58:23;;;;;;;7.67;4.93;;;7.80;99.90;;;;;;5077401;28;20218;-76
2021/05/03 07:00:51;;;;;;;7.53;4.60;;;7.70;99.90;;;;;;5077324;28;20209;-76
2021/05/03 07:03:17;;;;;;;10.97;4.80;;;7.60;99.90;;;;;;5081286;28;20216;-76
2021/05/03 07:05:43;;;;;;;7.23;4.70;;;8.10;99.90;;;;;;5089272;28;20542;-76
2021/05/03 07:08:11;;;;;;;9.03;4.87;;;8.20;99.90;;;;;;5079697;28;20237;-76
2021/05/03 07:10:42;;;;;;;7.43;4.43;;;8.30;99.90;;;;;;5085469;28;20220;-76
2021/05/03 07:13:09;;;;;;;6.90;4.57;;;8.20;99.90;;;;;;5081450;28;20289;-77
2021/05/03 07:15:35;;;;;;;6.03;4.10;;;8.10;99.90;;;;;;5088453;28;20202;-76
2021/05/03 07:18:02;;;;;;;7.43;4.63;;;8.00;99.90;;;;;;5087888;28;20567;-76
2021/05/03 07:20:29;;;;;;;6.60;4.13;;;7.80;99.90;;;;;;5085057;28;20599;-76
2021/05/03 07:22:56;;;;;;;9.07;5.47;;;7.60;99.90;;;;;;5082524;28;20259;-76
2021/05/03 07:25:22;;;;;;;10.17;4.77;;;7.60;99.90;;;;;;5077480;28;20308;-77
2021/05/03 07:27:48;;;;;;;8.47;4.40;;;7.60;99.90;;;;;;5078337;28;20202;-76
2021/05/03 07:30:16;;;;;;;9.23;5.10;;;7.60;99.90;;;;;;5078915;28;20209;-76
2021/05/03 07:32:42;;;;;;;7.07;4.57;;;7.90;99.90;;;;;;5085153;28;20198;-77
2021/05/03 07:35:13;;;;;;;7.67;4.10;;;7.80;99.90;;;;;;5075305;28;20202;-76
2021/05/03 07:37:40;;;;;;;8.30;5.13;;;7.80;99.90;;;;;;5084073;28;20198;-76
2021/05/03 07:40:08;;;;;;;10.10;4.43;;;7.60;99.90;;;;;;5090570;28;20351;-76
2021/05/03 07:42:35;;;;;;;7.40;4.57;;;7.70;99.90;;;;;;5083341;28;20271;-76
2021/05/03 07:45:01;;;;;;;6.43;4.50;;;7.50;99.90;;;;;;5089302;28;20719;-76
2021/05/03 07:47:28;;;;;;;6.40;4.70;;;7.40;99.90;;;;;;5084833;28;20210;-76
2021/05/03 07:49:55;;;;;;;7.07;4.57;;;7.60;99.90;;;;;;5081240;28;20699;-76
2021/05/03 07:52:22;;;;;;;8.73;5.03;;;7.70;99.90;;;;;;5078299;28;20649;-76
2021/05/03 07:54:48;;;;;;;7.17;5.10;;;7.90;99.90;;;;;;5084418;28;20214;-76
2021/05/03 07:57:15;;;;;;;8.87;5.00;;;8.10;99.90;;;;;;5080951;28;20205;-76
2021/05/03 07:59:41;;;;;;;7.93;5.43;;;8.10;99.90;;;;;;5084758;28;20271;-76
2021/05/03 08:02:08;;;;;;;7.20;4.67;;;8.00;99.90;;;;;;5081302;28;20224;-76
2021/05/03 08:04:34;;;;;;;7.50;4.80;;;8.00;99.90;;;;;;5082032;28;20210;-77
2021/05/03 08:07:01;;;;;;;8.80;5.17;;;8.10;99.90;;;;;;5082179;28;20209;-76
2021/05/03 08:09:28;;;;;;;7.97;4.83;;;8.00;99.90;;;;;;5083015;28;20604;-77
2021/05/03 08:11:55;;;;;;;7.57;4.73;;;8.10;99.90;;;;;;5079738;28;20206;-76
2021/05/03 08:14:22;;;;;;;8.00;4.70;;;8.10;99.90;;;;;;5079676;28;20202;-78
2021/05/03 08:16:52;;;;;;;7.27;4.40;;;8.30;99.90;;;;;;5078850;28;20237;-74
2021/05/03 08:19:18;;;;;;;6.57;4.63;;;8.60;99.90;;;;;;5080373;28;20280;-75
2021/05/03 08:21:45;;;;;;;6.03;4.03;;;8.70;99.90;;;;;;5083802;28;20573;-75
2021/05/03 08:24:11;;;;;;;5.27;4.00;;;9.00;99.90;;;;;;5086430;28;20206;-76
2021/05/03 08:26:38;;;;;;;6.20;3.97;;;8.90;99.90;;;;;;5085372;28;20289;-75
2021/05/03 08:29:05;;;;;;;5.83;3.87;;;8.80;99.90;;;;;;5079017;28;20194;-75
2021/05/03 08:31:33;;;;;;;5.07;3.83;;;9.20;99.90;;;;;;5082865;28;20258;-75
2021/05/03 08:33:59;;;;;;;6.40;4.00;;;9.80;99.90;;;;;;5076498;28;20256;-76
2021/05/03 08:36:25;;;;;;;8.10;4.97;;;9.90;99.90;;;;;;5092235;28;20299;-75
2021/05/03 08:38:52;;;;;;;6.10;4.87;;;10.20;99.90;;;;;;5083027;28;20293;-75
2021/05/03 08:41:18;;;;;;;10.60;4.80;;;10.20;99.90;;;;;;5084199;28;20201;-76
2021/05/03 08:43:48;;;;;;;8.70;4.80;;;10.60;99.90;;;;;;5082287;28;20198;-76
2021/05/03 08:46:25;;;;;;;7.30;4.20;;;10.30;99.90;;;;;;5076327;28;20263;-76
2021/05/03 08:48:57;;;;;;;6.90;4.10;;;10.30;99.90;;;;;;5075206;28;20793;-76
2021/05/03 08:51:31;;;;;;;7.23;4.80;;;10.00;99.90;;;;;;5083502;28;20201;-75
2021/05/03 08:54:04;;;;;;;6.80;4.90;;;10.20;99.90;;;;;;5074455;28;20292;-76
2021/05/03 08:56:30;;;;;;;6.17;4.70;;;10.30;99.90;;;;;;5072680;28;20221;-75
2021/05/03 08:58:58;;;;;;;7.53;5.13;;;10.20;99.90;;;;;;5083781;28;20239;-76
2021/05/03 09:01:25;;;;;;;6.13;4.50;;;10.30;99.90;;;;;;5083632;28;20255;-76
2021/05/03 09:03:53;;;;;;;11.20;5.03;;;10.40;99.90;;;;;;5087987;28;20193;-75
2021/05/03 09:06:19;;;;;;;9.37;5.40;;;10.20;99.90;;;;;;5087448;28;20283;-75
2021/05/03 09:08:58;;;;;;;7.47;5.30;;;10.60;99.90;;;;;;5086111;28;20201;-75
2021/05/03 09:11:24;;;;;;;7.80;5.00;;;10.90;99.90;;;;;;5083117;28;20283;-76
2021/05/03 09:13:51;;;;;;;5.80;4.20;;;10.80;99.90;;;;;;5074415;28;20687;-75
2021/05/03 09:16:23;;;;;;;6.40;4.60;;;10.90;99.90;;;;;;5077078;28;20327;-75
2021/05/03 09:18:50;;;;;;;6.03;4.10;;;12.00;99.90;;;;;;5080450;28;20217;-75
2021/05/03 09:21:21;;;;;;;7.37;5.07;;;12.40;99.90;;;;;;5079638;28;20206;-75
2021/05/03 09:24:08;;;;;;;8.53;4.77;;;12.30;99.90;;;;;;5081461;28;20284;-76
2021/05/03 09:26:43;;;;;;;8.57;4.67;;;12.00;99.90;;;;;;5083652;28;20206;-75
2021/05/03 09:29:30;;;;;;;7.97;4.80;;;11.80;99.90;;;;;;5087412;28;20201;-76
2021/05/03 09:31:59;;;;;;;7.27;4.73;;;11.80;99.90;;;;;;5087648;28;20201;-75
2021/05/03 09:34:27;;;;;;;6.80;3.87;;;12.40;99.90;;;;;;5071724;28;20203;-75
2021/05/03 09:36:54;;;;;;;5.77;4.23;;;12.40;99.90;;;;;;5074869;28;20210;-75
2021/05/03 09:39:30;;;;;;;7.07;4.80;;;12.40;99.90;;;;;;5070959;28;20271;-75
2021/05/03 09:41:56;;;;;;;6.63;4.13;;;12.90;99.90;;;;;;5082925;28;20205;-75
2021/05/03 09:44:22;;;;;;;6.43;3.90;;;12.90;99.90;;;;;;5077214;28;20209;-75
2021/05/03 09:46:51;;;;;;;5.70;3.87;;;13.20;99.90;;;;;;5077887;28;20213;-75
2021/05/03 09:49:19;;;;;;;5.83;3.80;;;13.40;99.90;;;;;;5081945;28;20679;-75
2021/05/03 09:51:47;;;;;;;5.43;4.07;;;13.20;99.90;;;;;;5079178;28;20205;-75
2021/05/03 09:54:15;;;;;;;4.57;3.60;;;13.20;99.90;;;;;;5077031;28;20292;-74
2021/05/03 09:57:02;;;;;;;6.90;3.40;;;13.50;99.90;;;;;;5079992;28;20241;-75
2021/05/03 09:59:34;;;;;;;4.10;3.43;;;13.00;99.90;;;;;;5076362;28;20221;-75
2021/05/03 10:02:05;;;;;;;6.77;3.50;;;12.80;99.90;;;;;;5082840;28;20723;-75
2021/05/03 10:04:33;;;;;;;5.63;3.23;;;13.10;99.90;;;;;;5075131;28;20199;-75
2021/05/03 10:07:00;;;;;;;6.63;3.50;;;12.90;99.90;;;;;;5077013;28;20236;-75
2021/05/03 10:09:29;;;;;;;4.63;3.73;;;13.00;99.90;;;;;;5083159;28;20193;-74
2021/05/03 10:11:56;;;;;;;3.63;3.30;;;13.30;99.90;;;;;;5085918;28;20588;-74
2021/05/03 10:14:22;;;;;;;5.00;3.30;;;13.30;99.90;;;;;;5086203;28;20648;-75
2021/05/03 10:16:49;;;;;;;4.83;3.20;;;13.60;99.90;;;;;;5080992;28;20210;-75
2021/05/03 10:19:19;;;;;;;6.67;3.50;;;13.50;99.90;;;;;;5077663;28;20491;-75
2021/05/03 10:21:47;;;;;;;5.77;3.77;;;13.70;99.90;;;;;;5074156;28;20619;-74
2021/05/03 10:24:15;;;;;;;4.23;3.40;;;13.90;99.90;;;;;;5078184;28;20195;-75
2021/05/03 10:26:44;;;;;;;5.97;3.50;;;14.20;99.90;;;;;;5074463;28;20191;-75
2021/05/03 10:29:25;;;;;;;4.57;3.40;;;13.80;99.90;;;;;;5080978;28;20631;-75
2021/05/03 10:31:59;;;;;;;6.10;3.90;;;13.70;99.90;;;;;;5085624;28;20205;-74
2021/05/03 10:34:48;;;;;;;6.10;3.83;;;13.80;99.90;;;;;;5086723;28;20204;-72
2021/05/03 10:37:40;;;;;;;6.83;3.70;;;13.90;99.90;;;;;;5086398;28;20501;-72
2021/05/03 10:40:23;;;;;;;5.93;4.20;;;14.00;99.90;;;;;;5085032;28;20229;-73
2021/05/03 10:43:15;;;;;;;5.53;4.00;;;14.20;99.90;;;;;;5081176;28;20197;-72
2021/05/03 10:45:49;;;;;;;8.00;4.57;;;14.30;99.90;;;;;;5090167;28;20201;-73
2021/05/03 10:48:39;;;;;;;5.03;3.83;;;14.30;99.90;;;;;;5088107;28;20228;-72
2021/05/03 10:51:09;;;;;;;7.03;4.40;;;14.10;99.90;;;;;;5085837;28;20193;-72
2021/05/03 10:53:40;;;;;;;8.43;4.73;;;13.60;99.90;;;;;;5083608;28;20191;-72
2021/05/03 10:56:08;;;;;;;6.83;4.00;;;13.90;99.90;;;;;;5086788;28;20203;-73
2021/05/03 10:59:06;;;;;;;6.60;4.20;;;13.80;99.90;;;;;;5089312;28;20213;-72
2021/05/03 11:02:06;;;;;;;6.40;4.23;;;13.50;99.90;;;;;;5084631;28;20243;-73
2021/05/03 11:04:33;;;;;;;5.97;4.43;;;13.60;99.90;;;;;;5088032;28;20254;-73
2021/05/03 11:07:12;;;;;;;7.80;4.10;;;13.80;99.90;;;;;;5086013;28;20643;-73
2021/05/03 11:09:41;;;;;;;4.83;4.33;;;14.00;99.90;;;;;;5093421;28;20533;-72
2021/05/03 11:12:40;;;;;;;5.17;4.30;;;14.20;99.90;;;;;;5090094;28;20623;-72
2021/05/03 11:15:23;;;;;;;6.53;4.57;;;14.30;99.90;;;;;;5043836;28;20819;-72
2021/05/03 11:18:24;;;;;;;5.93;4.20;;;14.90;99.90;;;;;;5043837;28;20237;-72
2021/05/03 11:21:09;;;;;;;6.23;3.73;;;15.00;99.90;;;;;;5081747;28;20249;-73
2021/05/03 11:23:38;;;;;;;5.50;4.17;;;14.80;99.90;;;;;;5091464;28;20194;-72
2021/05/03 11:26:21;;;;;;;6.60;4.03;;;15.20;99.90;;;;;;5093370;28;20577;-73
2021/05/03 11:28:47;;;;;;;5.67;4.40;;;14.90;99.90;;;;;;5091755;28;20462;-73
2021/05/03 11:31:16;;;;;;;5.57;4.67;;;14.80;99.90;;;;;;5093161;28;20198;-72
2021/05/03 11:33:45;;;;;;;8.30;4.50;;;14.70;99.90;;;;;;5088097;28;20222;-73
2021/05/03 11:36:19;;;;;;;5.57;4.03;;;14.40;99.90;;;;;;5091915;28;20209;-72
2021/05/03 11:38:53;;;;;;;5.53;4.03;;;14.30;99.90;;;;;;5089752;28;20201;-73
2021/05/03 11:44:20;;;;;;;5.23;3.83;;;14.70;99.90;;;;;;5072305;28;20200;-72
2021/05/03 11:46:46;;;;;;;5.43;4.00;;;14.90;99.90;;;;;;5082519;28;20197;-73
2021/05/03 11:49:18;;;;;;;10.43;4.37;;;15.10;99.90;;;;;;5078853;28;20206;-72
2021/05/03 11:51:50;;;;;;;5.83;4.13;;;14.80;99.90;;;;;;5083831;28;20209;-73
2021/05/03 11:54:28;;;;;;;6.20;4.00;;;14.80;99.90;;;;;;5077222;28;20194;-72
2021/05/03 11:56:57;;;;;;;9.50;4.00;;;14.90;99.90;;;;;;5081209;28;20201;-72
2021/05/03 11:59:24;;;;;;;7.43;4.20;;;15.00;99.90;;;;;;5075414;28;20225;-73
2021/05/03 12:02:02;;;;;;;4.80;4.20;;;14.70;99.90;;;;;;5090735;28;20294;-72
2021/05/03 12:04:39;;;;;;;8.07;4.13;;;14.50;99.90;;;;;;5085327;28;20210;-72
2021/05/03 12:07:20;;;;;;;9.13;4.20;;;14.40;99.90;;;;;;5090020;28;20193;-73
2021/05/03 12:09:47;;;;;;;8.63;4.50;;;14.30;99.90;;;;;;5082553;28;20216;-73
2021/05/03 12:12:15;;;;;;;6.07;4.70;;;14.20;99.90;;;;;;5081583;28;20209;-72
2021/05/03 12:14:47;;;;;;;5.83;3.83;;;14.20;99.90;;;;;;5084594;28;20251;-72
2021/05/03 12:17:23;;;;;;;7.53;3.97;;;14.20;99.90;;;;;;5082564;28;20247;-72
2021/05/03 12:19:51;;;;;;;6.80;3.80;;;14.10;99.90;;;;;;5083736;28;20605;-72
2021/05/03 12:22:18;;;;;;;8.07;4.20;;;13.90;99.90;;;;;;5087194;28;20204;-73
2021/05/03 12:24:45;;;;;;;6.47;3.67;;;14.00;99.90;;;;;;5078484;28;20197;-72
2021/05/03 12:27:12;;;;;;;5.80;4.40;;;14.10;99.90;;;;;;5074465;28;20213;-72
2021/05/03 12:29:42;;;;;;;6.83;4.53;;;13.90;99.90;;;;;;5088865;28;20202;-73
2021/05/03 12:32:10;;;;;;;7.07;4.50;;;14.20;99.90;;;;;;5076232;28;20197;-73
2021/05/03 12:34:41;;;;;;;6.10;4.13;;;14.10;99.90;;;;;;5078486;28;20216;-73
2021/05/03 12:37:10;;;;;;;5.20;3.77;;;14.20;99.90;;;;;;5073049;28;20206;-72
2021/05/03 12:39:40;;;;;;;4.67;4.13;;;14.40;99.90;;;;;;5078179;28;20225;-72
2021/05/03 12:42:11;;;;;;;6.80;4.33;;;14.40;99.90;;;;;;5088500;28;20205;-73
2021/05/03 12:44:44;;;;;;;8.93;4.30;;;14.70;99.90;;;;;;5087341;28;20219;-73
2021/05/03 12:47:29;;;;;;;4.97;4.13;;;14.60;99.90;;;;;;5077964;28;20214;-73
2021/05/03 12:50:00;;;;;;;7.23;5.03;;;15.10;99.90;;;;;;5084481;28;20213;-73
2021/05/03 12:52:31;;;;;;;6.93;4.37;;;14.90;99.90;;;;;;5078914;28;20305;-72
2021/05/03 12:55:03;;;;;;;6.90;4.73;;;15.20;99.90;;;;;;5080861;28;20205;-73
2021/05/03 12:57:49;;;;;;;5.67;4.10;;;15.70;99.90;;;;;;5075128;28;20197;-73
2021/05/03 13:00:21;;;;;;;6.10;4.00;;;16.30;99.90;;;;;;5079792;28;20210;-73
2021/05/03 13:03:02;;;;;;;6.83;4.00;;;16.00;99.90;;;;;;5085750;28;20671;-73
2021/05/03 13:05:33;;;;;;;5.43;3.93;;;15.50;99.90;;;;;;5082679;28;20330;-72
2021/05/03 13:08:08;;;;;;;5.90;4.30;;;15.60;99.90;;;;;;5087933;28;20203;-72
2021/05/03 13:10:57;;;;;;;5.10;3.60;;;15.90;99.90;;;;;;5086177;28;20197;-72
2021/05/03 13:24:57;;;;;;;5.27;4.00;;;15.10;99.90;;;;;;5002684;28;20258;-72